Time,TemperatureF,DewpointF,PressureIn,WindDirection,WindDirectionDegrees,WindSpeedMPH,WindSpeedGustMPH,Humidity,HourlyPrecipIn,Conditions,Clouds,dailyrainin,SoftwareType,DateUTC
2013-10-25 00:11:00,42.4,35.0,29.93,East,90,0.0,-999.0,75,-99.99,,,0.00,Acu-Link.com,2013-10-25 04:11:00,
2013-10-25 00:26:00,41.5,34.8,29.93,SSE,157,0.0,-999.0,77,-99.99,,,0.00,Acu-Link.com,2013-10-25 04:26:00,
2013-10-25 00:41:00,40.6,34.9,29.94,SSW,202,1.7,-999.0,80,-99.99,,,0.00,Acu-Link.com,2013-10-25 04:41:00,
2013-10-25 00:56:00,40.1,34.4,29.95,WNW,292,1.1,-999.0,80,-99.99,,,0.00,Acu-Link.com,2013-10-25 04:56:00,
2013-10-25 01:12:00,40.3,34.0,29.95,SE,135,1.7,-999.0,78,-99.99,,,0.00,Acu-Link.com,2013-10-25 05:12:00,
2013-10-25 01:27:00,40.3,33.7,29.95,South,180,3.2,-999.0,77,-99.99,,,0.00,Acu-Link.com,2013-10-25 05:27:00,
2013-10-25 01:42:00,39.9,33.3,29.96,SE,135,0.0,-999.0,77,-99.99,,,0.00,Acu-Link.com,2013-10-25 05:42:00,
2013-10-25 01:57:00,39.7,33.1,29.96,SSE,157,1.1,-999.0,77,-99.99,,,0.00,Acu-Link.com,2013-10-25 05:57:00,
2013-10-25 02:12:00,39.4,33.1,29.96,South,180,0.0,-999.0,78,-99.99,,,0.00,Acu-Link.com,2013-10-25 06:12:00,
2013-10-25 02:27:00,39.4,33.4,29.97,SSE,157,3.7,-999.0,79,-99.99,,,0.00,Acu-Link.com,2013-10-25 06:27:00,
2013-10-25 02:42:00,39.2,33.2,29.97,NW,315,4.7,-999.0,79,-99.99,,,0.00,Acu-Link.com,2013-10-25 06:42:00,
2013-10-25 02:57:00,38.7,32.4,29.97,NNE,22,4.7,-999.0,78,-99.99,,,0.00,Acu-Link.com,2013-10-25 06:57:00,
2013-10-25 03:12:00,38.5,32.2,29.97,SE,135,7.3,-999.0,78,-99.99,,,0.00,Acu-Link.com,2013-10-25 07:12:00,
2013-10-25 03:28:00,37.9,32.0,29.98,ESE,112,3.7,-999.0,79,-99.99,,,0.00,Acu-Link.com,2013-10-25 07:28:00,
2013-10-25 03:43:00,37.2,31.6,29.98,SSW,202,5.8,-999.0,80,-99.99,,,0.00,Acu-Link.com,2013-10-25 07:43:00,
2013-10-25 03:58:00,36.9,31.3,29.99,South,180,3.7,-999.0,80,-99.99,,,0.00,Acu-Link.com,2013-10-25 07:58:00,
2013-10-25 04:14:00,36.5,31.2,30.00,West,270,3.2,-999.0,81,-99.99,,,0.00,Acu-Link.com,2013-10-25 08:14:00,
2013-10-25 04:29:00,36.1,30.8,30.00,SSW,202,2.2,-999.0,81,-99.99,,,0.00,Acu-Link.com,2013-10-25 08:29:00,
2013-10-25 04:44:00,35.4,30.5,30.00,SSW,202,3.7,-999.0,82,-99.99,,,0.00,Acu-Link.com,2013-10-25 08:44:00,
2013-10-25 04:59:00,35.4,29.9,30.00,South,180,2.7,-999.0,80,-99.99,,,0.00,Acu-Link.com,2013-10-25 08:59:00,
2013-10-25 05:14:00,34.7,28.6,30.00,NNW,337,0.0,-999.0,78,-99.99,,,0.00,Acu-Link.com,2013-10-25 09:14:00,
2013-10-25 05:29:00,34.3,27.2,30.01,SSE,157,2.2,-999.0,75,-99.99,,,0.00,Acu-Link.com,2013-10-25 09:29:00,
2013-10-25 05:44:00,33.6,26.5,30.02,SE,135,4.2,-999.0,75,-99.99,,,0.00,Acu-Link.com,2013-10-25 09:44:00,
2013-10-25 06:00:00,33.3,25.6,30.02,South,180,8.3,-999.0,73,-99.99,,,0.00,Acu-Link.com,2013-10-25 10:00:00,
2013-10-25 06:15:00,33.3,24.6,30.04,WNW,292,1.1,-999.0,70,-99.99,,,0.00,Acu-Link.com,2013-10-25 10:15:00,
2013-10-25 06:30:00,31.6,23.6,30.06,ESE,112,2.2,-999.0,72,-99.99,,,0.00,Acu-Link.com,2013-10-25 10:30:00,
2013-10-25 06:45:00,31.3,24.6,30.06,ESE,112,3.2,-999.0,76,-99.99,,,0.00,Acu-Link.com,2013-10-25 10:45:00,
2013-10-25 07:00:00,30.7,24.0,30.06,SSW,202,3.7,-999.0,76,-99.99,,,0.00,Acu-Link.com,2013-10-25 11:00:00,
2013-10-25 07:15:00,30.7,23.4,30.06,East,90,3.2,-999.0,74,-99.99,,,0.00,Acu-Link.com,2013-10-25 11:15:00,
2013-10-25 07:30:00,30.6,23.6,30.06,East,90,3.7,-999.0,75,-99.99,,,0.00,Acu-Link.com,2013-10-25 11:30:00,
2013-10-25 07:46:00,30.0,23.7,30.08,NE,45,2.7,-999.0,77,-99.99,,,0.00,Acu-Link.com,2013-10-25 11:46:00,
2013-10-25 08:01:00,30.2,23.9,30.08,South,180,0.0,-999.0,77,-99.99,,,0.00,Acu-Link.com,2013-10-25 12:01:00,
2013-10-25 08:16:00,30.0,24.0,30.09,South,180,2.2,-999.0,78,-99.99,,,0.00,Acu-Link.com,2013-10-25 12:16:00,
2013-10-25 08:31:00,31.8,24.5,30.08,WNW,292,0.0,-999.0,74,-99.99,,,0.00,Acu-Link.com,2013-10-25 12:31:00,
2013-10-25 08:46:00,33.1,24.1,30.08,SSE,157,2.7,-999.0,69,-99.99,,,0.00,Acu-Link.com,2013-10-25 12:46:00,
2013-10-25 09:01:00,33.4,24.0,30.09,North,0,2.7,-999.0,68,-99.99,,,0.00,Acu-Link.com,2013-10-25 13:01:00,
2013-10-25 09:16:00,36.5,24.0,30.10,ESE,112,4.7,-999.0,60,-99.99,,,0.00,Acu-Link.com,2013-10-25 13:16:00,
2013-10-25 09:31:00,38.7,24.4,30.10,West,270,4.2,-999.0,56,-99.99,,,0.00,Acu-Link.com,2013-10-25 13:31:00,
2013-10-25 09:46:00,39.6,24.3,30.11,WSW,247,3.2,-999.0,54,-99.99,,,0.00,Acu-Link.com,2013-10-25 13:46:00,
2013-10-25 10:02:00,40.3,24.1,30.11,WNW,292,2.7,-999.0,52,-99.99,,,0.00,Acu-Link.com,2013-10-25 14:02:00,
2013-10-25 10:17:00,42.4,25.1,30.10,WNW,292,6.3,-999.0,50,-99.99,,,0.00,Acu-Link.com,2013-10-25 14:17:00,
2013-10-25 10:32:00,40.8,24.6,30.11,NNE,22,4.7,-999.0,52,-99.99,,,0.00,Acu-Link.com,2013-10-25 14:32:00,
2013-10-25 10:47:00,42.1,24.8,30.12,WNW,292,2.7,-999.0,50,-99.99,,,0.00,Acu-Link.com,2013-10-25 14:47:00,
2013-10-25 11:02:00,43.2,26.3,30.12,North,0,2.7,-999.0,51,-99.99,,,0.00,Acu-Link.com,2013-10-25 15:02:00,
2013-10-25 11:17:00,43.0,26.1,30.12,SSE,157,2.2,-999.0,51,-99.99,,,0.00,Acu-Link.com,2013-10-25 15:17:00,
2013-10-25 11:33:00,44.6,26.1,30.12,SW,225,4.7,-999.0,48,-99.99,,,0.00,Acu-Link.com,2013-10-25 15:33:00,
2013-10-25 11:48:00,46.0,26.4,30.13,WSW,247,6.3,-999.0,46,-99.99,,,0.00,Acu-Link.com,2013-10-25 15:48:00,
2013-10-25 12:03:00,46.0,26.9,30.12,WNW,292,2.7,-999.0,47,-99.99,,,0.00,Acu-Link.com,2013-10-25 16:03:00,
2013-10-25 12:18:00,45.0,26.5,30.12,SSW,202,3.2,-999.0,48,-99.99,,,0.00,Acu-Link.com,2013-10-25 16:18:00,
2013-10-25 12:33:00,47.7,26.9,30.12,SW,225,3.2,-999.0,44,-99.99,,,0.00,Acu-Link.com,2013-10-25 16:33:00,
2013-10-25 12:48:00,48.0,26.6,30.12,ESE,112,6.8,-999.0,43,-99.99,,,0.00,Acu-Link.com,2013-10-25 16:48:00,
2013-10-25 13:03:00,49.3,25.4,30.12,South,180,4.2,-999.0,39,-99.99,,,0.00,Acu-Link.com,2013-10-25 17:03:00,
2013-10-25 13:18:00,49.8,25.2,30.12,West,270,8.3,-999.0,38,-99.99,,,0.00,Acu-Link.com,2013-10-25 17:18:00,
2013-10-25 13:33:00,48.2,26.2,30.09,WNW,292,2.2,-999.0,42,-99.99,,,0.00,Acu-Link.com,2013-10-25 17:33:00,
2013-10-25 13:49:00,49.5,26.8,30.09,SSE,157,2.2,-999.0,41,-99.99,,,0.00,Acu-Link.com,2013-10-25 17:49:00,
2013-10-25 14:04:00,50.4,26.4,30.09,North,0,7.3,-999.0,39,-99.99,,,0.00,Acu-Link.com,2013-10-25 18:04:00,
2013-10-25 14:19:00,49.5,26.2,30.09,WNW,292,2.7,-999.0,40,-99.99,,,0.00,Acu-Link.com,2013-10-25 18:19:00,
2013-10-25 14:34:00,49.6,26.3,30.08,West,270,2.2,-999.0,40,-99.99,,,0.00,Acu-Link.com,2013-10-25 18:34:00,
2013-10-25 14:49:00,51.1,26.4,30.08,ESE,112,4.2,-999.0,38,-99.99,,,0.00,Acu-Link.com,2013-10-25 18:49:00,
2013-10-25 15:04:00,51.4,26.0,30.08,NE,45,8.9,-999.0,37,-99.99,,,0.00,Acu-Link.com,2013-10-25 19:04:00,
2013-10-25 15:19:00,50.7,25.4,30.07,WSW,247,5.3,-999.0,37,-99.99,,,0.00,Acu-Link.com,2013-10-25 19:19:00,
2013-10-25 15:34:00,50.4,25.8,30.08,NW,315,3.2,-999.0,38,-99.99,,,0.00,Acu-Link.com,2013-10-25 19:34:00,
2013-10-25 15:49:00,50.4,24.5,30.08,NNE,22,1.7,-999.0,36,-99.99,,,0.00,Acu-Link.com,2013-10-25 19:49:00,
2013-10-25 16:05:00,50.4,25.8,30.08,WNW,292,7.3,-999.0,38,-99.99,,,0.00,Acu-Link.com,2013-10-25 20:05:00,
2013-10-25 16:20:00,49.8,25.9,30.08,SSE,157,2.2,-999.0,39,-99.99,,,0.00,Acu-Link.com,2013-10-25 20:20:00,
2013-10-25 16:35:00,50.7,24.7,30.07,SSW,202,3.7,-999.0,36,-99.99,,,0.00,Acu-Link.com,2013-10-25 20:35:00,
2013-10-25 16:50:00,49.3,24.1,30.07,NE,45,5.3,-999.0,37,-99.99,,,0.00,Acu-Link.com,2013-10-25 20:50:00,
2013-10-25 17:05:00,48.9,25.0,30.07,South,180,1.1,-999.0,39,-99.99,,,0.00,Acu-Link.com,2013-10-25 21:05:00,
2013-10-25 17:20:00,49.3,25.4,30.08,West,270,2.7,-999.0,39,-99.99,,,0.00,Acu-Link.com,2013-10-25 21:20:00,
2013-10-25 17:35:00,48.4,24.6,30.07,WNW,292,0.0,-999.0,39,-99.99,,,0.00,Acu-Link.com,2013-10-25 21:35:00,
2013-10-25 17:51:00,46.9,25.6,30.07,NNE,22,4.7,-999.0,43,-99.99,,,0.00,Acu-Link.com,2013-10-25 21:51:00,
2013-10-25 18:06:00,46.6,26.4,30.05,SE,135,0.0,-999.0,45,-99.99,,,0.00,Acu-Link.com,2013-10-25 22:06:00,
2013-10-25 18:21:00,44.2,24.7,30.05,SE,135,0.0,-999.0,46,-99.99,,,0.00,Acu-Link.com,2013-10-25 22:21:00,
2013-10-25 18:36:00,42.6,24.8,30.06,SE,135,2.2,-999.0,49,-99.99,,,0.00,Acu-Link.com,2013-10-25 22:36:00,
2013-10-25 18:51:00,41.4,25.1,30.07,ESE,112,0.0,-999.0,52,-99.99,,,0.00,Acu-Link.com,2013-10-25 22:51:00,
2013-10-25 19:06:00,39.4,25.0,30.07,ENE,67,0.0,-999.0,56,-99.99,,,0.00,Acu-Link.com,2013-10-25 23:06:00,
2013-10-25 19:21:00,37.9,24.9,30.08,NW,315,0.0,-999.0,59,-99.99,,,0.00,Acu-Link.com,2013-10-25 23:21:00,
2013-10-25 19:36:00,36.9,25.5,30.09,NNW,337,0.0,-999.0,63,-99.99,,,0.00,Acu-Link.com,2013-10-25 23:36:00,
2013-10-25 19:51:00,35.8,25.6,30.09,NW,315,0.0,-999.0,66,-99.99,,,0.00,Acu-Link.com,2013-10-25 23:51:00,
2013-10-25 20:07:00,34.9,25.1,30.09,WNW,292,0.0,-999.0,67,-99.99,,,0.00,Acu-Link.com,2013-10-26 00:07:00,
2013-10-25 20:22:00,34.2,25.8,30.09,NNE,22,0.0,-999.0,71,-99.99,,,0.00,Acu-Link.com,2013-10-26 00:22:00,
2013-10-25 20:37:00,34.0,26.3,30.09,NW,315,0.0,-999.0,73,-99.99,,,0.00,Acu-Link.com,2013-10-26 00:37:00,
2013-10-25 20:52:00,33.1,26.4,30.09,West,270,0.0,-999.0,76,-99.99,,,0.00,Acu-Link.com,2013-10-26 00:52:00,
2013-10-25 21:07:00,32.5,27.0,30.09,East,90,0.0,-999.0,80,-99.99,,,0.00,Acu-Link.com,2013-10-26 01:07:00,
2013-10-25 21:22:00,32.0,26.8,30.09,NNE,22,0.0,-999.0,81,-99.99,,,0.00,Acu-Link.com,2013-10-26 01:22:00,
2013-10-25 21:37:00,31.3,27.0,30.09,ESE,112,0.0,-999.0,84,-99.99,,,0.00,Acu-Link.com,2013-10-26 01:37:00,
2013-10-25 21:52:00,30.6,26.6,30.10,NNW,337,0.0,-999.0,85,-99.99,,,0.00,Acu-Link.com,2013-10-26 01:52:00,
2013-10-25 22:07:00,30.4,26.7,30.11,NNW,337,0.0,-999.0,86,-99.99,,,0.00,Acu-Link.com,2013-10-26 02:07:00,
2013-10-25 22:23:00,29.8,26.7,30.11,NNW,337,0.0,-999.0,88,-99.99,,,0.00,Acu-Link.com,2013-10-26 02:23:00,
2013-10-25 22:38:00,30.4,27.0,30.11,WNW,292,0.0,-999.0,87,-99.99,,,0.00,Acu-Link.com,2013-10-26 02:38:00,
2013-10-25 22:53:00,30.0,26.9,30.11,NW,315,0.0,-999.0,88,-99.99,,,0.00,Acu-Link.com,2013-10-26 02:53:00,
2013-10-25 23:08:00,29.8,26.4,30.10,NW,315,0.0,-999.0,87,-99.99,,,0.00,Acu-Link.com,2013-10-26 03:08:00,
2013-10-25 23:23:00,29.7,26.6,30.10,NNE,22,0.0,-999.0,88,-99.99,,,0.00,Acu-Link.com,2013-10-26 03:23:00,
2013-10-25 23:38:00,29.5,26.1,30.10,SW,225,0.0,-999.0,87,-99.99,,,0.00,Acu-Link.com,2013-10-26 03:38:00,
2013-10-25 23:54:00,27.9,25.1,30.10,WNW,292,0.0,-999.0,89,-99.99,,,0.00,Acu-Link.com,2013-10-26 03:54:00,